Terminal Aerodrome Forecast
Issued by NWS

Home | Current Version | Previous Version | Graphics & Text | Print | Product List | Glossary On
Versions: 1 2 3 4 5 6 7 8 9 10 11 12 13 14 15 16 17 18
099
FTUS43 KGRB 241133
TAFAUW
TAF
KAUW 241133Z 2412/2512 03003KT 3SM -RA BR SCT003 OVC014
      TEMPO 2412/2416 1SM -RA BR BKN003
     FM241600 04006KT 4SM -RA OVC009
     FM242200 05006KT 5SM -RA OVC009
     FM250100 05007KT 6SM -RA OVC012
     FM250800 05009G14KT P6SM OVC012
     FM251100 06010G15KT P6SM OVC009=

USA.gov is the U.S. government's official web portal to all federal, state and local government web resources and services.